createdAt,value
2019-06-11T00:01:32.201Z,26.20
2019-06-11T00:04:03.465Z,26.20
2019-06-11T00:06:32.260Z,26.10
2019-06-11T00:09:03.805Z,26.10
2019-06-11T00:11:32.959Z,26.00
2019-06-11T00:14:04.782Z,25.90
2019-06-11T00:16:33.587Z,25.80
2019-06-11T00:19:04.861Z,25.50
2019-06-11T00:21:34.224Z,25.60
2019-06-11T00:24:06.175Z,25.60
2019-06-11T00:26:34.903Z,25.00
2019-06-11T00:29:06.673Z,24.70
2019-06-11T00:31:35.588Z,24.50
2019-06-11T00:34:07.534Z,24.50
2019-06-11T00:36:36.231Z,24.30
2019-06-11T00:39:07.700Z,24.20
2019-06-11T00:41:58.041Z,24.50
2019-06-11T00:44:27.500Z,24.90
2019-06-11T00:46:58.373Z,25.00
2019-06-11T00:49:28.007Z,25.10
2019-06-11T00:51:57.461Z,25.10
2019-06-11T00:54:26.900Z,25.10
2019-06-11T00:56:57.318Z,25.10
2019-06-11T00:59:26.895Z,25.10
2019-06-11T01:01:57.622Z,25.10
2019-06-11T01:04:27.261Z,25.10
2019-06-11T01:06:56.707Z,24.40
2019-06-11T01:09:26.161Z,24.10
2019-06-11T01:11:55.619Z,24.30
2019-06-11T01:14:25.719Z,24.80
2019-06-11T01:16:55.249Z,24.70
2019-06-11T01:19:24.784Z,24.40
2019-06-11T01:21:54.235Z,23.20
2019-06-11T01:24:23.670Z,23.60
2019-06-11T01:26:53.150Z,24.20
2019-06-11T01:29:23.207Z,24.20
2019-06-11T01:31:53.377Z,23.90
2019-06-11T01:34:22.943Z,24.30
2019-06-11T01:36:52.589Z,24.40
2019-06-11T01:39:22.436Z,24.50
2019-06-11T01:41:53.122Z,24.50
2019-06-11T01:44:23.197Z,24.50
2019-06-11T01:46:52.944Z,24.40
2019-06-11T01:49:22.616Z,24.30
2019-06-11T01:51:52.745Z,24.40
2019-06-11T01:54:22.698Z,24.40
2019-06-11T01:56:52.643Z,24.40
2019-06-11T01:59:23.172Z,24.40
2019-06-11T02:01:52.800Z,24.40
2019-06-11T02:04:23.017Z,24.40
2019-06-11T02:06:53.195Z,24.20
2019-06-11T02:09:22.967Z,24.00
2019-06-11T02:11:52.572Z,23.80
2019-06-11T02:14:22.776Z,23.90
2019-06-11T02:16:53.253Z,24.00
2019-06-11T02:19:24.278Z,24.00
2019-06-11T02:21:54.125Z,24.10
2019-06-11T02:24:23.577Z,24.00
2019-06-11T02:26:53.440Z,24.00
2019-06-11T02:29:22.894Z,23.60
2019-06-11T02:31:53.899Z,23.50
2019-06-11T02:34:58.089Z,23.60
2019-06-11T02:36:54.739Z,23.50
2019-06-11T02:39:28.385Z,23.60
2019-06-11T02:41:55.413Z,23.70
2019-06-11T02:44:29.142Z,23.70
2019-06-11T02:46:56.039Z,23.70
2019-06-11T02:49:28.025Z,23.50
2019-06-11T02:51:57.548Z,23.30
2019-06-11T02:54:31.271Z,23.00
2019-06-11T02:57:01.121Z,22.80
2019-06-11T02:59:33.844Z,22.80
2019-06-11T03:02:01.533Z,23.10
2019-06-11T03:04:50.930Z,23.30
2019-06-11T03:07:04.501Z,23.20
2019-06-11T03:09:36.962Z,23.10
2019-06-11T03:12:06.795Z,23.10
2019-06-11T03:14:42.307Z,23.20
2019-06-11T03:17:16.349Z,23.20
2019-06-11T03:19:51.952Z,23.20
2019-06-11T03:22:27.226Z,23.30
2019-06-11T03:24:51.972Z,23.30
2019-06-11T03:27:27.203Z,23.30
2019-06-11T03:29:52.933Z,23.30
2019-06-11T03:33:11.583Z,23.20
2019-06-11T03:38:06.135Z,22.90
2019-06-11T03:40:00.663Z,22.90
2019-06-11T03:42:34.765Z,22.90
2019-06-11T03:45:01.686Z,22.90
2019-06-11T03:47:34.822Z,22.80
2019-06-11T03:50:02.212Z,22.80
2019-06-11T03:52:34.014Z,22.70
2019-06-11T03:55:04.000Z,22.60
2019-06-11T03:57:34.842Z,22.60
2019-06-11T04:00:15.501Z,22.80
2019-06-11T04:02:41.807Z,22.80
2019-06-11T04:05:11.351Z,22.80
2019-06-11T04:07:51.306Z,22.70
2019-06-11T04:10:15.666Z,22.70
2019-06-11T04:12:44.302Z,22.60
2019-06-11T04:15:14.560Z,22.70
2019-06-11T04:17:53.631Z,22.60
2019-06-11T04:20:17.126Z,22.70
2019-06-11T04:22:51.269Z,22.80
2019-06-11T04:25:21.363Z,22.80
2019-06-11T04:27:51.357Z,22.80
2019-06-11T04:30:37.123Z,22.90
2019-06-11T04:32:52.206Z,22.90
2019-06-11T04:35:25.226Z,22.90
2019-06-11T04:38:05.952Z,23.00
2019-06-11T04:40:29.215Z,23.00
2019-06-11T04:42:55.210Z,23.00
2019-06-11T04:45:43.971Z,23.10
2019-06-11T04:48:18.791Z,23.10
2019-06-11T04:50:47.187Z,23.20
2019-06-11T04:53:17.912Z,23.20
2019-06-11T04:55:51.149Z,23.20
2019-06-11T04:58:29.686Z,23.30
2019-06-11T05:05:57.121Z,23.40
2019-06-11T05:08:34.704Z,23.50
2019-06-11T05:11:01.457Z,23.50
2019-06-11T05:13:35.621Z,23.60
2019-06-11T05:16:01.699Z,23.60
2019-06-11T05:18:36.632Z,23.70
2019-06-11T05:21:02.645Z,23.90
2019-06-11T05:23:37.395Z,23.90
2019-06-11T05:26:09.518Z,24.00
2019-06-11T05:28:35.955Z,24.00
2019-06-11T05:31:05.788Z,24.10
2019-06-11T05:33:36.715Z,24.10
2019-06-11T05:36:06.436Z,24.20
2019-06-11T05:38:44.974Z,24.30
2019-06-11T05:41:07.055Z,24.30
2019-06-11T05:43:36.914Z,24.40
2019-06-11T05:46:06.365Z,24.40
2019-06-11T05:48:35.825Z,24.60
2019-06-11T05:51:05.281Z,24.60
2019-06-11T05:53:35.440Z,24.60
2019-06-11T05:56:05.060Z,24.70
2019-06-11T05:58:37.320Z,24.70
2019-06-11T06:01:28.402Z,25.00
2019-06-11T06:03:40.460Z,25.00
2019-06-11T06:06:11.356Z,24.90
2019-06-11T06:08:40.747Z,25.20
2019-06-11T06:11:10.886Z,25.30
2019-06-11T06:13:41.883Z,25.30
2019-06-11T06:16:11.548Z,25.40
2019-06-11T06:18:41.327Z,25.40
2019-06-11T06:21:10.899Z,25.50
2019-06-11T06:23:40.955Z,25.70
2019-06-11T06:26:12.692Z,25.70
2019-06-11T06:28:43.838Z,25.70
2019-06-11T06:31:12.938Z,25.70
2019-06-11T06:33:42.369Z,25.90
2019-06-11T06:36:11.824Z,25.90
2019-06-11T06:38:48.720Z,26.00
2019-06-11T06:41:12.629Z,26.10
2019-06-11T06:43:42.113Z,26.10
2019-06-11T06:46:11.567Z,26.20
2019-06-11T06:48:41.636Z,26.30
2019-06-11T06:51:11.827Z,26.40
2019-06-11T06:53:41.488Z,26.70
2019-06-11T06:56:10.969Z,26.50
2019-06-11T06:58:41.316Z,26.50
2019-06-11T07:01:11.475Z,26.70
2019-06-11T07:03:44.431Z,26.70
2019-06-11T07:06:12.614Z,26.70
2019-06-11T07:09:00.319Z,27.00
2019-06-11T07:11:13.211Z,26.90
2019-06-11T07:13:42.813Z,27.10
2019-06-11T07:16:12.229Z,27.30
2019-06-11T07:18:50.579Z,27.50
2019-06-11T07:21:12.867Z,27.40
2019-06-11T07:23:46.137Z,27.30
2019-06-11T07:26:13.477Z,27.50
2019-06-11T07:28:45.298Z,27.70
2019-06-11T07:31:14.140Z,27.80
2019-06-11T07:33:45.978Z,27.70
2019-06-11T07:36:14.728Z,27.90
2019-06-11T07:38:46.345Z,28.10
2019-06-11T07:41:15.402Z,28.10
2019-06-11T07:43:48.180Z,28.40
2019-06-11T07:46:32.689Z,28.50
2019-06-11T07:48:56.214Z,28.40
2019-06-11T07:51:21.760Z,28.50
2019-06-11T07:53:51.853Z,28.60
2019-06-11T07:56:21.196Z,28.30
2019-06-11T07:58:52.206Z,28.50
2019-06-11T08:01:21.982Z,28.80
2019-06-11T08:03:51.634Z,28.80
2019-06-11T08:06:22.536Z,29.00
2019-06-11T08:08:55.293Z,29.10
2019-06-11T08:11:23.653Z,29.10
2019-06-11T08:16:24.341Z,29.30
2019-06-11T08:19:02.207Z,29.20
2019-06-11T08:19:32.454Z,29.20
2019-06-11T08:21:47.829Z,29.50
2019-06-11T08:24:09.976Z,29.50
2019-06-11T08:29:01.406Z,29.60
2019-06-11T08:31:30.862Z,29.50
2019-06-11T08:34:02.837Z,29.60
2019-06-11T08:36:31.488Z,29.60
2019-06-11T08:39:01.329Z,29.80
2019-06-11T08:41:30.846Z,30.00
2019-06-11T08:44:01.049Z,30.00
2019-06-11T08:46:31.083Z,29.90
2019-06-11T08:49:00.976Z,29.90
2019-06-11T08:51:30.763Z,30.00
2019-06-11T08:54:00.428Z,29.90
2019-06-11T08:56:31.227Z,30.00
2019-06-11T08:59:01.154Z,30.20
2019-06-11T09:01:31.064Z,30.30
2019-06-11T09:04:01.065Z,30.30
2019-06-11T09:06:30.590Z,30.40
2019-06-11T09:09:00.870Z,30.30
2019-06-11T09:11:30.559Z,30.40
2019-06-11T09:14:10.215Z,30.70
2019-06-11T09:16:42.656Z,30.70
2019-06-11T09:19:11.700Z,30.40
2019-06-11T09:21:44.573Z,30.70
2019-06-11T09:24:12.570Z,30.80
2019-06-11T09:26:44.958Z,30.90
2019-06-11T09:29:13.220Z,30.80
2019-06-11T09:31:45.636Z,30.80
2019-06-11T09:34:13.845Z,30.90
2019-06-11T09:36:44.595Z,31.00
2019-06-11T09:39:14.469Z,31.10
2019-06-11T09:41:44.577Z,31.30
2019-06-11T09:44:15.257Z,31.20
2019-06-11T09:46:46.448Z,31.20
2019-06-11T09:49:15.828Z,31.40
2019-06-11T09:51:45.632Z,31.40
2019-06-11T09:54:15.138Z,31.50
2019-06-11T09:56:46.036Z,31.60
2019-06-11T09:59:15.818Z,31.70
2019-06-11T10:01:46.399Z,31.80
2019-06-11T10:04:16.402Z,31.50
2019-06-11T10:06:45.891Z,31.70
2019-06-11T10:09:15.327Z,31.80
2019-06-11T10:11:51.927Z,31.90
2019-06-11T10:14:15.976Z,32.00
2019-06-11T10:16:46.359Z,32.10
2019-06-11T10:19:15.861Z,32.30
2019-06-11T10:21:45.328Z,32.20
2019-06-11T10:24:14.799Z,32.20
2019-06-11T10:26:45.056Z,32.10
2019-06-11T10:29:14.549Z,32.30
2019-06-11T10:31:43.999Z,32.40
2019-06-11T10:34:14.729Z,32.20
2019-06-11T10:36:44.279Z,32.30
2019-06-11T10:39:14.473Z,32.40
2019-06-11T10:41:53.236Z,32.40
2019-06-11T10:44:15.121Z,32.60
2019-06-11T10:46:44.646Z,32.50
2019-06-11T10:49:14.094Z,32.50
2019-06-11T10:51:44.632Z,32.60
2019-06-11T10:54:14.071Z,32.60
2019-06-11T10:56:44.718Z,32.80
2019-06-11T10:59:14.925Z,33.00
2019-06-11T11:01:45.811Z,32.90
2019-06-11T11:04:15.701Z,33.10
2019-06-11T11:06:46.211Z,33.10
2019-06-11T11:09:15.690Z,33.30
2019-06-11T11:11:46.273Z,33.20
2019-06-11T11:14:16.275Z,33.20
2019-06-11T11:16:45.720Z,33.40
2019-06-11T11:19:15.168Z,33.50
2019-06-11T11:21:45.847Z,33.60
2019-06-11T11:24:15.455Z,33.70
2019-06-11T11:26:46.009Z,33.50
2019-06-11T11:29:15.652Z,33.40
2019-06-11T11:31:46.047Z,33.40
2019-06-11T11:34:15.601Z,33.60
2019-06-11T11:36:46.497Z,33.80
2019-06-11T11:39:16.003Z,33.60
2019-06-11T11:41:46.744Z,33.70
2019-06-11T11:44:16.247Z,33.80
2019-06-11T11:46:49.524Z,33.90
2019-06-11T11:49:23.432Z,34.10
2019-06-11T11:51:55.235Z,34.00
2019-06-11T11:54:30.784Z,33.90
2019-06-11T11:57:02.668Z,34.10
2019-06-11T11:59:34.947Z,34.30
2019-06-11T12:02:06.336Z,34.00
2019-06-11T12:04:36.134Z,34.30
2019-06-11T12:07:05.641Z,34.30
2019-06-11T12:09:35.086Z,34.50
2019-06-11T12:12:04.708Z,34.50
2019-06-11T12:14:34.161Z,34.60
2019-06-11T12:17:03.684Z,34.50
2019-06-11T12:19:33.137Z,34.80
2019-06-11T12:22:02.582Z,34.80
2019-06-11T12:24:33.455Z,34.90
2019-06-11T12:27:03.580Z,35.10
2019-06-11T12:29:33.099Z,35.00
2019-06-11T12:32:08.022Z,35.00
2019-06-11T12:34:33.856Z,35.20
2019-06-11T12:37:03.648Z,35.10
2019-06-11T12:39:33.196Z,35.20
2019-06-11T12:42:05.955Z,35.30
2019-06-11T12:44:33.797Z,35.30
2019-06-11T12:47:05.150Z,35.40
2019-06-11T12:49:34.412Z,35.40
2019-06-11T12:52:04.783Z,35.40
2019-06-11T12:54:34.463Z,35.70
2019-06-11T12:57:05.979Z,35.90
2019-06-11T12:59:35.864Z,35.50
2019-06-11T13:02:05.390Z,35.40
2019-06-11T13:04:34.959Z,35.70
2019-06-11T13:07:05.012Z,35.60
2019-06-11T13:09:34.459Z,35.80
2019-06-11T13:12:04.997Z,35.90
2019-06-11T13:14:36.227Z,35.90
2019-06-11T13:17:09.219Z,35.70
2019-06-11T13:19:37.405Z,35.60
2019-06-11T13:22:07.045Z,35.80
2019-06-11T13:24:36.515Z,35.70
2019-06-11T13:27:06.105Z,35.80
2019-06-11T13:29:35.579Z,36.10
2019-06-11T13:32:07.734Z,36.20
2019-06-11T13:34:36.361Z,36.10
2019-06-11T13:37:05.887Z,36.50
2019-06-11T13:39:35.364Z,36.50
2019-06-11T13:42:14.350Z,36.60
2019-06-11T13:44:39.663Z,36.10
2019-06-11T13:47:07.528Z,36.60
2019-06-11T13:49:37.012Z,36.80
2019-06-11T13:52:07.369Z,36.70
2019-06-11T13:54:37.700Z,36.90
2019-06-11T13:57:07.923Z,37.00
2019-06-11T13:59:37.451Z,37.20
2019-06-11T14:02:07.915Z,37.40
2019-06-11T14:04:37.361Z,37.70
2019-06-11T14:07:07.326Z,37.30
2019-06-11T14:09:36.934Z,37.50
2019-06-11T14:12:07.108Z,37.40
2019-06-11T14:14:36.685Z,38.10
2019-06-11T14:17:07.698Z,38.60
2019-06-11T14:19:37.348Z,38.60
2019-06-11T14:22:06.905Z,39.40
2019-06-11T14:24:36.358Z,38.90
2019-06-11T14:27:07.010Z,39.10
2019-06-11T14:29:36.540Z,39.20
2019-06-11T14:32:06.865Z,39.20
2019-06-11T14:34:36.519Z,39.20
2019-06-11T14:37:07.353Z,39.30
2019-06-11T14:39:36.969Z,39.60
2019-06-11T14:42:08.152Z,39.10
2019-06-11T14:44:43.023Z,38.90
2019-06-11T14:47:12.845Z,39.10
2019-06-11T14:49:43.035Z,38.90
2019-06-11T14:52:12.461Z,38.90
2019-06-11T14:54:41.928Z,38.90
2019-06-11T14:57:12.302Z,38.70
2019-06-11T14:59:45.483Z,38.30
2019-06-11T15:02:13.846Z,38.60
2019-06-11T15:04:43.265Z,38.30
2019-06-11T15:07:14.979Z,38.80
2019-06-11T15:09:44.023Z,38.10
2019-06-11T15:12:16.822Z,38.10
2019-06-11T15:14:54.331Z,38.40
2019-06-11T15:17:15.812Z,39.00
2019-06-11T15:20:00.466Z,39.00
2019-06-11T15:22:18.346Z,38.60
2019-06-11T15:24:47.585Z,38.20
2019-06-11T15:27:17.030Z,38.60
2019-06-11T15:30:16.613Z,39.20
2019-06-11T15:32:40.249Z,39.20
2019-06-11T15:35:15.411Z,39.00
2019-06-11T15:37:41.035Z,39.40
2019-06-11T15:40:15.860Z,39.60
2019-06-11T15:42:42.480Z,39.10
2019-06-11T15:45:32.724Z,39.50
2019-06-11T15:47:44.950Z,39.40
2019-06-11T15:50:15.109Z,39.40
2019-06-11T15:52:46.261Z,39.70
2019-06-11T15:55:15.938Z,39.90
2019-06-11T15:57:45.380Z,40.20
2019-06-11T16:00:15.386Z,40.20
2019-06-11T16:02:44.812Z,40.60
2019-06-11T16:05:14.439Z,40.60
2019-06-11T16:07:43.960Z,40.70
2019-06-11T16:10:15.220Z,40.50
2019-06-11T16:12:44.812Z,40.70
2019-06-11T16:15:26.150Z,41.00
2019-06-11T16:17:45.746Z,41.30
2019-06-11T16:20:18.837Z,40.70
2019-06-11T16:22:50.698Z,40.90
2019-06-11T16:25:23.142Z,40.60
2019-06-11T16:27:52.578Z,40.00
2019-06-11T16:30:22.473Z,40.70
2019-06-11T16:32:51.948Z,40.70
2019-06-11T16:35:21.351Z,40.90
2019-06-11T16:37:51.145Z,40.30
2019-06-11T16:40:22.056Z,40.40
2019-06-11T16:42:51.894Z,40.40
2019-06-11T16:45:21.836Z,40.40
2019-06-11T16:47:51.293Z,40.40
2019-06-11T16:50:23.101Z,40.50
2019-06-11T16:52:52.248Z,40.50
2019-06-11T16:55:22.152Z,39.70
2019-06-11T16:57:51.598Z,40.00
2019-06-11T17:00:28.967Z,40.30
2019-06-11T17:02:53.225Z,39.90
2019-06-11T17:05:26.315Z,39.50
2019-06-11T17:07:53.853Z,39.40
2019-06-11T17:10:23.648Z,39.60
2019-06-11T17:12:53.204Z,39.50
2019-06-11T17:15:23.531Z,39.90
2019-06-11T17:17:54.264Z,39.50
2019-06-11T17:20:24.246Z,39.00
2019-06-11T17:22:53.716Z,38.60
2019-06-11T17:25:26.791Z,38.90
2019-06-11T17:27:55.408Z,39.20
2019-06-11T17:30:25.076Z,39.30
2019-06-11T17:32:54.538Z,38.90
2019-06-11T17:35:23.974Z,38.70
2019-06-11T17:37:53.422Z,38.50
2019-06-11T17:40:26.724Z,38.10
2019-06-11T17:42:54.043Z,38.60
2019-06-11T17:45:29.927Z,38.30
2019-06-11T17:47:54.737Z,37.80
2019-06-11T17:50:30.419Z,38.10
2019-06-11T17:52:55.618Z,37.50
2019-06-11T17:55:25.062Z,37.70
2019-06-11T17:57:54.502Z,37.60
2019-06-11T18:00:36.884Z,37.90
2019-06-11T18:03:10.509Z,37.60
2019-06-11T18:05:42.136Z,37.70
2019-06-11T18:08:11.505Z,37.00
2019-06-11T18:10:41.490Z,36.70
2019-06-11T18:13:11.173Z,36.30
2019-06-11T18:15:41.044Z,36.40
2019-06-11T18:18:11.171Z,36.30
2019-06-11T18:20:41.294Z,36.50
2019-06-11T18:23:12.286Z,36.30
2019-06-11T18:25:41.969Z,36.10
2019-06-11T18:28:11.428Z,35.80
2019-06-11T18:30:41.584Z,35.70
2019-06-11T18:33:11.624Z,36.10
2019-06-11T18:35:41.033Z,35.70
2019-06-11T18:38:10.528Z,35.70
2019-06-11T18:40:40.973Z,35.30
2019-06-11T18:43:10.818Z,35.20
2019-06-11T18:45:40.975Z,35.60
2019-06-11T18:48:10.550Z,35.30
2019-06-11T18:50:40.540Z,35.10
2019-06-11T18:53:10.640Z,34.80
2019-06-11T18:55:41.209Z,34.90
2019-06-11T18:58:12.588Z,34.80
2019-06-11T19:00:42.035Z,34.70
2019-06-11T19:03:11.848Z,34.50
2019-06-11T19:05:41.402Z,34.00
2019-06-11T19:08:11.859Z,34.10
2019-06-11T19:10:41.526Z,34.40
2019-06-11T19:13:11.565Z,34.30
2019-06-11T19:15:41.311Z,34.30
2019-06-11T19:18:10.879Z,33.60
2019-06-11T19:20:40.554Z,33.60
2019-06-11T19:23:11.204Z,33.90
2019-06-11T19:25:43.326Z,33.60
2019-06-11T19:28:14.492Z,33.70
2019-06-11T19:30:44.095Z,33.50
2019-06-11T19:33:13.584Z,33.50
2019-06-11T19:35:43.043Z,33.40
2019-06-11T19:38:12.533Z,33.30
2019-06-11T19:40:42.292Z,33.40
2019-06-11T19:43:11.825Z,33.50
2019-06-11T19:45:43.204Z,33.40
2019-06-11T19:48:12.463Z,33.40
2019-06-11T19:50:41.963Z,33.40
2019-06-11T19:53:11.386Z,33.40
2019-06-11T19:55:41.266Z,33.30
2019-06-11T19:58:11.380Z,33.10
2019-06-11T20:00:41.760Z,33.20
2019-06-11T20:03:11.494Z,33.10
2019-06-11T20:05:40.947Z,33.00
2019-06-11T20:08:10.831Z,32.90
2019-06-11T20:10:45.193Z,32.80
2019-06-11T20:13:11.492Z,32.60
2019-06-11T20:15:41.063Z,32.60
2019-06-11T20:18:10.908Z,32.60
2019-06-11T20:20:40.913Z,32.50
2019-06-11T20:23:10.536Z,32.60
2019-06-11T20:25:42.184Z,32.30
2019-06-11T20:28:11.148Z,32.20
2019-06-11T20:30:40.900Z,32.10
2019-06-11T20:33:11.022Z,32.20
2019-06-11T20:35:41.648Z,32.10
2019-06-11T20:38:11.411Z,32.00
2019-06-11T20:40:42.310Z,31.90
2019-06-11T20:43:12.124Z,31.80
2019-06-11T20:45:44.320Z,31.60
2019-06-11T20:48:22.357Z,31.60
2019-06-11T20:50:43.908Z,31.60
2019-06-11T20:53:13.389Z,31.50
2019-06-11T20:55:43.344Z,31.40
2019-06-11T20:58:12.841Z,31.20
2019-06-11T21:00:44.560Z,31.30
2019-06-11T21:03:13.480Z,31.10
2019-06-11T21:05:43.816Z,30.90
2019-06-11T21:08:13.544Z,30.70
2019-06-11T21:10:43.789Z,30.60
2019-06-11T21:13:13.493Z,30.80
2019-06-11T21:15:47.702Z,31.00
2019-06-11T21:18:30.531Z,30.90
2019-06-11T21:21:01.923Z,30.60
2019-06-11T21:23:32.931Z,30.30
2019-06-11T21:26:02.493Z,30.30
2019-06-11T21:28:32.817Z,30.00
2019-06-11T21:31:02.550Z,30.10
2019-06-11T21:33:32.008Z,30.20
2019-06-11T21:36:01.459Z,30.30
2019-06-11T21:38:30.934Z,30.20
2019-06-11T21:41:02.822Z,30.20
2019-06-11T21:43:32.277Z,30.00
2019-06-11T21:46:01.732Z,30.00
2019-06-11T21:48:39.068Z,29.80
2019-06-11T21:51:02.362Z,29.60
2019-06-11T21:53:31.837Z,29.40
2019-06-11T21:56:01.457Z,29.40
2019-06-11T21:58:31.172Z,29.40
2019-06-11T22:01:02.848Z,29.40
2019-06-11T22:03:32.489Z,29.50
2019-06-11T22:06:01.962Z,29.40
2019-06-11T22:08:31.412Z,29.40
2019-06-11T22:11:00.858Z,29.40
2019-06-11T22:13:30.684Z,29.30
2019-06-11T22:16:00.739Z,29.30
2019-06-11T22:18:32.145Z,29.20
2019-06-11T22:21:01.626Z,29.00
2019-06-11T22:23:31.092Z,29.10
2019-06-11T22:26:00.722Z,29.00
2019-06-11T22:28:30.362Z,29.00
2019-06-11T22:31:01.504Z,29.10
2019-06-11T22:33:31.182Z,29.00
2019-06-11T22:36:20.333Z,29.00
2019-06-11T22:38:51.419Z,28.90
2019-06-11T22:41:21.131Z,28.80
2019-06-11T22:43:52.766Z,28.60
2019-06-11T22:46:21.782Z,28.80
2019-06-11T22:48:51.232Z,28.80
2019-06-11T22:51:20.719Z,28.80
2019-06-11T22:53:52.735Z,28.80
2019-06-11T22:56:21.486Z,28.70
2019-06-11T22:58:52.252Z,28.60
2019-06-11T23:01:21.875Z,28.30
2019-06-11T23:03:53.578Z,28.30
2019-06-11T23:06:22.523Z,28.20
2019-06-11T23:08:52.738Z,28.20
2019-06-11T23:11:22.282Z,28.20
2019-06-11T23:13:52.919Z,28.30
2019-06-11T23:16:22.644Z,28.40
2019-06-11T23:18:52.087Z,28.40
2019-06-11T23:21:21.582Z,28.20
2019-06-11T23:23:51.127Z,28.20
2019-06-11T23:26:20.830Z,28.00
2019-06-11T23:28:53.399Z,28.10
2019-06-11T23:31:21.605Z,28.00
2019-06-11T23:33:53.496Z,28.10
2019-06-11T23:36:22.258Z,28.00
2019-06-11T23:38:53.897Z,27.90
2019-06-11T23:41:22.868Z,27.90
2019-06-11T23:43:53.162Z,27.80
2019-06-11T23:46:22.727Z,27.80
2019-06-11T23:48:54.998Z,27.80
2019-06-11T23:51:23.377Z,27.80
2019-06-11T23:53:54.761Z,27.80
2019-06-11T23:56:24.011Z,27.70
2019-06-11T23:58:53.635Z,27.70
